AirNav   Pilot Hours Calculator
 
 1474 users online  

HI58 Turtle Bay Resort Heliport
Kahuku, Hawaii, USA

GOING TO KAHUKU?


FAA INFORMATION EFFECTIVE 30 JANUARY 2020

Location

FAA Identifier: HI58
Lat/Long: 21-42-17.5320N 158-00-20.0850W
21-42.292200N 158-00.334750W
21.7048700,-158.0055792
(estimated)
Elevation: 13 ft. / 4 m (estimated)
Variation: 11E (1985)
From city: 3 miles N of KAHUKU, HI
Time zone: UTC -10 (year round; does not observe DST)
Zip code: 96731

Heliport Operations

Heliport use: Private use. Permission required prior to landing
Activation date: 01/1987
Control tower: no
ARTCC: HONOLULU CONTROL FACILITY CENTER
FSS: HONOLULU FLIGHT SERVICE STATION
Attendance: 0800-1800
Wind indicator: yes
Segmented circle: no

Nearby radio navigation aids

VOR radial/distance  VOR name  Freq  Var
HNLr339/24.2HONOLULU VORTAC114.8011E
CKHr316/31.3KOKO HEAD VORTAC113.9011E

Heliport Services

Runway Information

Helipad H1

Dimensions: 125 x 125 ft. / 38 x 38 m
Surface: asphalt
Traffic pattern: leftleft

Heliport Ownership and Management from official FAA records

Ownership: Privately-owned
Owner: BRE TURTLE BAY RESORT LLC
57-091 KAMAHAMEHA HWY
KAHUKU, HI 96731
Phone 213-830-6300
Manager: CALVIN G. DORN
PO BOX 5371
KAILUAKONA, HI 96740
Phone 808-329-6601

Heliport Operational Statistics

Aircraft based on the field: 1
Helicopters: 1
    
Aircraft operations: avg 61/month *
100% air taxi
* for 12-month period ending 31 December 2001

Additional Remarks

FOR CD CTC HCF CENTER AT 808-840-6262

Instrument Procedures

There are no published instrument procedures at HI58.

Some nearby airports with instrument procedures:

PHNL - Daniel K Inouye International Airport (24 nm S)
PHJR - Kalaeloa Airport (John Rodgers Field) (24 nm S)
PHMK - Molokai Airport (61 nm SE)
PHLU - Kalaupapa Airport (65 nm SE)
PHLI - Lihue Airport (76 nm W)
 
Loc | Ops | Rwys | IFR | FBO | Links
Com | Nav | Svcs | Stats | Notes
Area around HI58 (Turtle Bay Resort Heliport)
 
Road maps at: MapQuest Bing Google
 
Aerial photo
No photo
 
Sectional chart

 
Airport distance calculator
Flying to Turtle Bay Resort Heliport? Find the distance to fly.

From to HI58

Sunrise and sunset
Times for 24-Feb-2020
 Local
(UTC-10)
 Zulu
(UTC)
Morning civil twilight06:3516:35
Sunrise06:5816:58
Sunset18:3304:33
Evening civil twilight18:5504:55

Current date and time
Zulu (UTC)  24-Feb-2020 19:11:33
Local (UTC-10)  24-Feb-2020 09:11:33
 
METAR
PHHI 
14nm S 
241856Z AUTO 32006KT 10SM CLR 21/18 A3018 RMK AO2 SLP214 T02110183 $
PHNG 
21nm SE 
241857Z 30005KT 10SM FEW030 24/18 A3015 RMK AO2 SLP205 T02390183 $
PHNL 
23nm S 
241853Z 33006KT 10SM CLR 23/16 A3017 RMK AO2 SLP216 T02330161
PHJR 
24nm S 
241853Z VRB04KT 10SM CLR 25/16 A3018 RMK AO2 SLP227 T02500161
TAF
NOTAMs
Click for the latest NOTAMs
NOTAMs are issued by the DoD/FAA and will open in a separate window not controlled by AirNav.

 

 
 

Would you like to see your business listed on this page?

 If your business provides an interesting product or service to pilots, flight crews, aircraft, or users of the Turtle Bay Resort Heliport, you should consider listing it here.  To start the listing process, click on the button below
 
Add a business
 

Other Pages about Turtle Bay Resort Heliport

Update a link
 
Copyright © AirNav, LLC. All rights reserved. Privacy Policy  Contact